sensor_id;sensor_type;location;lat;lon;timestamp;P1;durP1;ratioP1;P2;durP2;ratioP2
14235;SDS011;7202;50.718;7.072;2023-02-28T00:01:35;4.77;;;3.13;;
14235;SDS011;7202;50.718;7.072;2023-02-28T00:04:03;4.03;;;2.83;;
14235;SDS011;7202;50.718;7.072;2023-02-28T00:06:32;5.20;;;3.30;;
14235;SDS011;7202;50.718;7.072;2023-02-28T00:09:01;5.27;;;2.90;;
14235;SDS011;7202;50.718;7.072;2023-02-28T00:11:30;5.60;;;2.90;;
14235;SDS011;7202;50.718;7.072;2023-02-28T00:14:00;3.90;;;2.60;;
14235;SDS011;7202;50.718;7.072;2023-02-28T00:16:28;6.13;;;3.13;;
14235;SDS011;7202;50.718;7.072;2023-02-28T00:18:57;6.00;;;3.00;;
14235;SDS011;7202;50.718;7.072;2023-02-28T00:21:26;8.00;;;3.37;;
14235;SDS011;7202;50.718;7.072;2023-02-28T00:23:55;8.00;;;3.00;;
14235;SDS011;7202;50.718;7.072;2023-02-28T00:26:23;5.57;;;2.97;;
14235;SDS011;7202;50.718;7.072;2023-02-28T00:28:52;5.13;;;2.73;;
14235;SDS011;7202;50.718;7.072;2023-02-28T00:31:23;7.57;;;3.03;;
14235;SDS011;7202;50.718;7.072;2023-02-28T00:33:52;7.30;;;2.60;;
14235;SDS011;7202;50.718;7.072;2023-02-28T00:36:21;7.13;;;3.27;;
14235;SDS011;7202;50.718;7.072;2023-02-28T00:38:49;8.33;;;3.47;;
14235;SDS011;7202;50.718;7.072;2023-02-28T00:41:18;6.23;;;2.93;;
14235;SDS011;7202;50.718;7.072;2023-02-28T00:43:47;8.27;;;2.77;;
14235;SDS011;7202;50.718;7.072;2023-02-28T00:46:16;9.80;;;3.30;;
14235;SDS011;7202;50.718;7.072;2023-02-28T00:48:45;5.27;;;2.87;;
14235;SDS011;7202;50.718;7.072;2023-02-28T00:51:14;6.57;;;3.10;;
14235;SDS011;7202;50.718;7.072;2023-02-28T00:53:43;6.80;;;3.63;;
14235;SDS011;7202;50.718;7.072;2023-02-28T00:56:11;5.40;;;3.20;;
14235;SDS011;7202;50.718;7.072;2023-02-28T00:58:40;9.23;;;4.07;;
14235;SDS011;7202;50.718;7.072;2023-02-28T01:01:09;4.43;;;2.93;;
14235;SDS011;7202;50.718;7.072;2023-02-28T01:03:37;4.93;;;2.97;;
14235;SDS011;7202;50.718;7.072;2023-02-28T01:06:07;5.00;;;3.00;;
14235;SDS011;7202;50.718;7.072;2023-02-28T01:08:37;6.53;;;2.90;;
14235;SDS011;7202;50.718;7.072;2023-02-28T01:11:07;6.50;;;2.90;;
14235;SDS011;7202;50.718;7.072;2023-02-28T01:13:39;5.53;;;3.00;;
14235;SDS011;7202;50.718;7.072;2023-02-28T01:16:08;4.47;;;2.47;;
14235;SDS011;7202;50.718;7.072;2023-02-28T01:18:36;5.07;;;3.00;;
14235;SDS011;7202;50.718;7.072;2023-02-28T01:21:05;5.77;;;3.00;;
14235;SDS011;7202;50.718;7.072;2023-02-28T01:23:37;4.83;;;2.87;;
14235;SDS011;7202;50.718;7.072;2023-02-28T01:26:06;5.67;;;2.73;;
14235;SDS011;7202;50.718;7.072;2023-02-28T01:28:39;10.33;;;3.13;;
14235;SDS011;7202;50.718;7.072;2023-02-28T01:31:08;4.27;;;2.73;;
14235;SDS011;7202;50.718;7.072;2023-02-28T01:33:38;5.80;;;3.33;;
14235;SDS011;7202;50.718;7.072;2023-02-28T01:36:09;5.07;;;2.77;;
14235;SDS011;7202;50.718;7.072;2023-02-28T01:38:39;3.63;;;2.73;;
14235;SDS011;7202;50.718;7.072;2023-02-28T01:41:09;8.60;;;3.27;;
14235;SDS011;7202;50.718;7.072;2023-02-28T01:46:34;7.30;;;3.00;;
14235;SDS011;7202;50.718;7.072;2023-02-28T01:49:05;5.33;;;3.47;;
14235;SDS011;7202;50.718;7.072;2023-02-28T01:51:39;5.03;;;2.90;;
14235;SDS011;7202;50.718;7.072;2023-02-28T01:54:13;3.93;;;2.40;;
14235;SDS011;7202;50.718;7.072;2023-02-28T01:56:47;5.50;;;2.80;;
14235;SDS011;7202;50.718;7.072;2023-02-28T01:59:22;3.53;;;2.63;;
14235;SDS011;7202;50.718;7.072;2023-02-28T02:01:54;4.73;;;3.07;;
14235;SDS011;7202;50.718;7.072;2023-02-28T02:04:23;6.07;;;3.00;;
14235;SDS011;7202;50.718;7.072;2023-02-28T02:07:01;7.30;;;2.90;;
14235;SDS011;7202;50.718;7.072;2023-02-28T02:09:31;8.07;;;3.20;;
14235;SDS011;7202;50.718;7.072;2023-02-28T02:11:59;4.37;;;2.73;;
14235;SDS011;7202;50.718;7.072;2023-02-28T02:14:42;5.17;;;3.13;;
14235;SDS011;7202;50.718;7.072;2023-02-28T02:17:21;5.13;;;2.73;;
14235;SDS011;7202;50.718;7.072;2023-02-28T02:26:04;3.80;;;2.47;;
14235;SDS011;7202;50.718;7.072;2023-02-28T02:29:14;5.37;;;2.53;;
14235;SDS011;7202;50.718;7.072;2023-02-28T02:32:12;6.47;;;2.60;;
14235;SDS011;7202;50.718;7.072;2023-02-28T02:34:58;5.87;;;2.57;;
14235;SDS011;7202;50.718;7.072;2023-02-28T02:37:36;2.70;;;2.30;;
14235;SDS011;7202;50.718;7.072;2023-02-28T02:40:11;4.40;;;2.67;;
14235;SDS011;7202;50.718;7.072;2023-02-28T02:42:45;6.53;;;2.60;;
14235;SDS011;7202;50.718;7.072;2023-02-28T02:45:20;3.97;;;2.93;;
14235;SDS011;7202;50.718;7.072;2023-02-28T02:47:54;4.23;;;2.80;;
14235;SDS011;7202;50.718;7.072;2023-02-28T02:50:29;7.73;;;3.00;;
14235;SDS011;7202;50.718;7.072;2023-02-28T02:53:01;5.13;;;2.37;;
14235;SDS011;7202;50.718;7.072;2023-02-28T02:55:33;3.53;;;2.60;;
14235;SDS011;7202;50.718;7.072;2023-02-28T02:58:07;5.70;;;3.30;;
14235;SDS011;7202;50.718;7.072;2023-02-28T03:00:42;5.10;;;3.13;;
14235;SDS011;7202;50.718;7.072;2023-02-28T03:03:14;6.63;;;2.60;;
14235;SDS011;7202;50.718;7.072;2023-02-28T03:05:49;7.20;;;3.00;;
14235;SDS011;7202;50.718;7.072;2023-02-28T03:08:19;4.07;;;2.67;;
14235;SDS011;7202;50.718;7.072;2023-02-28T03:10:48;4.13;;;3.00;;
14235;SDS011;7202;50.718;7.072;2023-02-28T03:16:35;4.80;;;3.10;;
14235;SDS011;7202;50.718;7.072;2023-02-28T03:19:10;4.13;;;2.63;;
14235;SDS011;7202;50.718;7.072;2023-02-28T03:21:56;6.03;;;3.10;;
14235;SDS011;7202;50.718;7.072;2023-02-28T03:24:37;5.40;;;3.10;;
14235;SDS011;7202;50.718;7.072;2023-02-28T03:27:15;4.83;;;2.60;;
14235;SDS011;7202;50.718;7.072;2023-02-28T03:29:50;6.30;;;3.60;;
14235;SDS011;7202;50.718;7.072;2023-02-28T03:32:24;5.90;;;3.10;;
14235;SDS011;7202;50.718;7.072;2023-02-28T03:34:58;3.27;;;2.50;;
14235;SDS011;7202;50.718;7.072;2023-02-28T03:37:35;6.37;;;3.20;;
14235;SDS011;7202;50.718;7.072;2023-02-28T03:40:09;5.83;;;3.30;;
14235;SDS011;7202;50.718;7.072;2023-02-28T03:42:44;6.40;;;3.67;;
14235;SDS011;7202;50.718;7.072;2023-02-28T03:45:16;4.70;;;3.13;;
14235;SDS011;7202;50.718;7.072;2023-02-28T03:47:49;6.33;;;3.10;;
14235;SDS011;7202;50.718;7.072;2023-02-28T03:50:21;6.63;;;3.53;;
14235;SDS011;7202;50.718;7.072;2023-02-28T03:52:55;4.50;;;3.10;;
14235;SDS011;7202;50.718;7.072;2023-02-28T03:55:32;5.73;;;3.27;;
14235;SDS011;7202;50.718;7.072;2023-02-28T03:58:11;6.60;;;3.77;;
14235;SDS011;7202;50.718;7.072;2023-02-28T04:00:48;5.07;;;3.53;;
14235;SDS011;7202;50.718;7.072;2023-02-28T04:03:20;5.37;;;3.30;;
14235;SDS011;7202;50.718;7.072;2023-02-28T04:05:50;8.20;;;3.80;;
14235;SDS011;7202;50.718;7.072;2023-02-28T04:08:22;7.73;;;3.57;;
14235;SDS011;7202;50.718;7.072;2023-02-28T04:10:52;5.97;;;3.43;;
14235;SDS011;7202;50.718;7.072;2023-02-28T04:13:24;4.17;;;2.83;;
14235;SDS011;7202;50.718;7.072;2023-02-28T04:15:52;6.97;;;3.60;;
14235;SDS011;7202;50.718;7.072;2023-02-28T04:18:21;6.27;;;3.40;;
14235;SDS011;7202;50.718;7.072;2023-02-28T04:20:49;6.33;;;3.30;;
14235;SDS011;7202;50.718;7.072;2023-02-28T04:23:18;4.83;;;3.57;;
14235;SDS011;7202;50.718;7.072;2023-02-28T04:25:48;5.40;;;3.30;;
14235;SDS011;7202;50.718;7.072;2023-02-28T04:28:18;6.13;;;3.30;;
14235;SDS011;7202;50.718;7.072;2023-02-28T04:30:46;3.93;;;2.93;;
14235;SDS011;7202;50.718;7.072;2023-02-28T04:33:15;7.20;;;3.43;;
14235;SDS011;7202;50.718;7.072;2023-02-28T04:35:43;7.13;;;3.47;;
14235;SDS011;7202;50.718;7.072;2023-02-28T04:38:12;7.23;;;3.60;;
14235;SDS011;7202;50.718;7.072;2023-02-28T04:40:41;4.77;;;3.00;;
14235;SDS011;7202;50.718;7.072;2023-02-28T04:43:10;4.83;;;3.40;;
14235;SDS011;7202;50.718;7.072;2023-02-28T04:45:39;4.57;;;3.03;;
14235;SDS011;7202;50.718;7.072;2023-02-28T04:48:08;7.47;;;3.40;;
14235;SDS011;7202;50.718;7.072;2023-02-28T04:50:36;4.80;;;3.80;;
14235;SDS011;7202;50.718;7.072;2023-02-28T04:53:05;7.73;;;3.90;;
14235;SDS011;7202;50.718;7.072;2023-02-28T04:55:33;5.30;;;3.73;;
14235;SDS011;7202;50.718;7.072;2023-02-28T04:58:02;5.20;;;3.40;;
14235;SDS011;7202;50.718;7.072;2023-02-28T05:00:32;5.93;;;3.70;;
14235;SDS011;7202;50.718;7.072;2023-02-28T05:03:01;8.13;;;3.53;;
14235;SDS011;7202;50.718;7.072;2023-02-28T05:05:29;5.53;;;3.63;;
14235;SDS011;7202;50.718;7.072;2023-02-28T05:07:58;8.50;;;3.30;;
14235;SDS011;7202;50.718;7.072;2023-02-28T05:10:27;6.03;;;3.47;;
14235;SDS011;7202;50.718;7.072;2023-02-28T05:12:55;6.07;;;3.77;;
14235;SDS011;7202;50.718;7.072;2023-02-28T05:15:24;5.53;;;3.63;;
14235;SDS011;7202;50.718;7.072;2023-02-28T05:17:54;5.97;;;3.17;;
14235;SDS011;7202;50.718;7.072;2023-02-28T05:20:22;5.30;;;3.07;;
14235;SDS011;7202;50.718;7.072;2023-02-28T05:22:51;5.27;;;3.40;;
14235;SDS011;7202;50.718;7.072;2023-02-28T05:25:20;5.03;;;3.60;;
14235;SDS011;7202;50.718;7.072;2023-02-28T05:27:49;6.30;;;3.30;;
14235;SDS011;7202;50.718;7.072;2023-02-28T05:30:18;6.07;;;3.97;;
14235;SDS011;7202;50.718;7.072;2023-02-28T05:32:49;6.67;;;3.53;;
14235;SDS011;7202;50.718;7.072;2023-02-28T05:35:20;4.47;;;3.13;;
14235;SDS011;7202;50.718;7.072;2023-02-28T05:37:49;6.20;;;3.90;;
14235;SDS011;7202;50.718;7.072;2023-02-28T05:40:18;6.43;;;4.00;;
14235;SDS011;7202;50.718;7.072;2023-02-28T05:42:47;5.07;;;3.40;;
14235;SDS011;7202;50.718;7.072;2023-02-28T05:45:18;6.17;;;3.10;;
14235;SDS011;7202;50.718;7.072;2023-02-28T05:47:46;7.87;;;3.60;;
14235;SDS011;7202;50.718;7.072;2023-02-28T05:50:15;5.57;;;3.13;;
14235;SDS011;7202;50.718;7.072;2023-02-28T05:52:48;7.80;;;3.40;;
14235;SDS011;7202;50.718;7.072;2023-02-28T05:55:17;4.90;;;3.20;;
14235;SDS011;7202;50.718;7.072;2023-02-28T05:57:45;4.33;;;2.87;;
14235;SDS011;7202;50.718;7.072;2023-02-28T06:00:14;4.83;;;3.33;;
14235;SDS011;7202;50.718;7.072;2023-02-28T06:02:44;3.90;;;2.97;;
14235;SDS011;7202;50.718;7.072;2023-02-28T06:05:14;8.77;;;3.87;;
14235;SDS011;7202;50.718;7.072;2023-02-28T06:07:45;5.60;;;3.27;;
14235;SDS011;7202;50.718;7.072;2023-02-28T06:10:14;5.87;;;3.87;;
14235;SDS011;7202;50.718;7.072;2023-02-28T06:12:43;5.80;;;4.17;;
14235;SDS011;7202;50.718;7.072;2023-02-28T06:15:12;5.30;;;3.60;;
14235;SDS011;7202;50.718;7.072;2023-02-28T06:17:42;8.67;;;4.00;;
14235;SDS011;7202;50.718;7.072;2023-02-28T06:20:11;7.93;;;3.47;;
14235;SDS011;7202;50.718;7.072;2023-02-28T06:22:40;6.60;;;3.77;;
14235;SDS011;7202;50.718;7.072;2023-02-28T06:25:11;7.50;;;3.73;;
14235;SDS011;7202;50.718;7.072;2023-02-28T06:27:39;6.70;;;4.13;;
14235;SDS011;7202;50.718;7.072;2023-02-28T06:30:08;5.17;;;3.73;;
14235;SDS011;7202;50.718;7.072;2023-02-28T06:32:37;7.17;;;4.03;;
14235;SDS011;7202;50.718;7.072;2023-02-28T06:35:06;6.00;;;3.90;;
14235;SDS011;7202;50.718;7.072;2023-02-28T06:37:36;6.90;;;3.60;;
14235;SDS011;7202;50.718;7.072;2023-02-28T06:40:08;6.40;;;3.80;;
14235;SDS011;7202;50.718;7.072;2023-02-28T06:42:41;6.50;;;4.40;;
14235;SDS011;7202;50.718;7.072;2023-02-28T06:45:10;10.33;;;4.20;;
14235;SDS011;7202;50.718;7.072;2023-02-28T06:47:40;9.77;;;4.20;;
14235;SDS011;7202;50.718;7.072;2023-02-28T06:50:09;6.20;;;4.13;;
14235;SDS011;7202;50.718;7.072;2023-02-28T06:52:39;5.83;;;3.90;;
14235;SDS011;7202;50.718;7.072;2023-02-28T06:55:08;5.97;;;3.90;;
14235;SDS011;7202;50.718;7.072;2023-02-28T06:57:38;6.13;;;3.97;;
14235;SDS011;7202;50.718;7.072;2023-02-28T07:00:08;6.17;;;4.17;;
14235;SDS011;7202;50.718;7.072;2023-02-28T07:02:38;5.27;;;3.87;;
14235;SDS011;7202;50.718;7.072;2023-02-28T07:05:07;5.87;;;3.90;;
14235;SDS011;7202;50.718;7.072;2023-02-28T07:07:36;6.77;;;4.23;;
14235;SDS011;7202;50.718;7.072;2023-02-28T07:10:07;7.57;;;4.30;;
14235;SDS011;7202;50.718;7.072;2023-02-28T07:12:39;8.53;;;5.30;;
14235;SDS011;7202;50.718;7.072;2023-02-28T07:15:08;7.47;;;4.77;;
14235;SDS011;7202;50.718;7.072;2023-02-28T07:17:37;8.10;;;5.37;;
14235;SDS011;7202;50.718;7.072;2023-02-28T07:20:06;8.43;;;5.27;;
14235;SDS011;7202;50.718;7.072;2023-02-28T07:22:36;8.13;;;5.53;;
14235;SDS011;7202;50.718;7.072;2023-02-28T07:25:05;7.23;;;4.70;;
14235;SDS011;7202;50.718;7.072;2023-02-28T07:27:34;11.00;;;5.07;;
14235;SDS011;7202;50.718;7.072;2023-02-28T07:30:05;8.03;;;4.70;;
14235;SDS011;7202;50.718;7.072;2023-02-28T07:32:35;8.70;;;4.70;;
14235;SDS011;7202;50.718;7.072;2023-02-28T07:35:05;6.90;;;4.50;;
14235;SDS011;7202;50.718;7.072;2023-02-28T07:37:34;6.67;;;4.43;;
14235;SDS011;7202;50.718;7.072;2023-02-28T07:40:04;5.60;;;4.13;;
14235;SDS011;7202;50.718;7.072;2023-02-28T07:42:35;5.43;;;4.07;;
14235;SDS011;7202;50.718;7.072;2023-02-28T07:45:06;7.50;;;4.20;;
14235;SDS011;7202;50.718;7.072;2023-02-28T07:47:38;8.00;;;4.07;;
14235;SDS011;7202;50.718;7.072;2023-02-28T07:50:07;5.47;;;3.57;;
14235;SDS011;7202;50.718;7.072;2023-02-28T07:52:38;10.13;;;4.30;;
14235;SDS011;7202;50.718;7.072;2023-02-28T07:55:08;5.97;;;4.13;;
14235;SDS011;7202;50.718;7.072;2023-02-28T07:57:37;8.87;;;4.33;;
14235;SDS011;7202;50.718;7.072;2023-02-28T08:00:08;8.60;;;4.07;;
14235;SDS011;7202;50.718;7.072;2023-02-28T08:02:42;6.83;;;4.03;;
14235;SDS011;7202;50.718;7.072;2023-02-28T08:05:11;5.03;;;3.93;;
14235;SDS011;7202;50.718;7.072;2023-02-28T08:07:39;4.43;;;3.83;;
14235;SDS011;7202;50.718;7.072;2023-02-28T08:10:09;7.40;;;3.63;;
14235;SDS011;7202;50.718;7.072;2023-02-28T08:12:38;6.87;;;3.93;;
14235;SDS011;7202;50.718;7.072;2023-02-28T08:15:08;5.83;;;4.00;;
14235;SDS011;7202;50.718;7.072;2023-02-28T08:17:37;5.30;;;3.87;;
14235;SDS011;7202;50.718;7.072;2023-02-28T08:20:07;5.27;;;3.90;;
14235;SDS011;7202;50.718;7.072;2023-02-28T08:22:37;5.47;;;3.87;;
14235;SDS011;7202;50.718;7.072;2023-02-28T08:25:06;5.97;;;3.90;;
14235;SDS011;7202;50.718;7.072;2023-02-28T08:27:35;5.93;;;3.27;;
14235;SDS011;7202;50.718;7.072;2023-02-28T08:30:04;4.50;;;2.90;;
14235;SDS011;7202;50.718;7.072;2023-02-28T08:32:35;5.07;;;3.30;;
14235;SDS011;7202;50.718;7.072;2023-02-28T08:35:05;5.67;;;3.10;;
14235;SDS011;7202;50.718;7.072;2023-02-28T08:37:35;5.87;;;3.37;;
14235;SDS011;7202;50.718;7.072;2023-02-28T08:40:05;7.20;;;3.37;;
14235;SDS011;7202;50.718;7.072;2023-02-28T08:42:35;4.07;;;2.90;;
14235;SDS011;7202;50.718;7.072;2023-02-28T08:45:04;4.00;;;3.13;;
14235;SDS011;7202;50.718;7.072;2023-02-28T08:47:33;4.07;;;2.67;;
14235;SDS011;7202;50.718;7.072;2023-02-28T08:50:04;5.17;;;2.80;;
14235;SDS011;7202;50.718;7.072;2023-02-28T08:52:33;4.10;;;2.83;;
14235;SDS011;7202;50.718;7.072;2023-02-28T08:55:02;5.30;;;3.07;;
14235;SDS011;7202;50.718;7.072;2023-02-28T08:57:31;3.13;;;2.73;;
14235;SDS011;7202;50.718;7.072;2023-02-28T09:00:00;3.33;;;2.70;;
14235;SDS011;7202;50.718;7.072;2023-02-28T09:02:31;3.07;;;2.53;;
14235;SDS011;7202;50.718;7.072;2023-02-28T09:05:01;5.90;;;3.03;;
14235;SDS011;7202;50.718;7.072;2023-02-28T09:07:30;6.97;;;3.30;;
14235;SDS011;7202;50.718;7.072;2023-02-28T09:09:59;4.80;;;3.03;;
14235;SDS011;7202;50.718;7.072;2023-02-28T09:12:27;4.57;;;3.17;;
14235;SDS011;7202;50.718;7.072;2023-02-28T09:15:01;5.10;;;3.00;;
14235;SDS011;7202;50.718;7.072;2023-02-28T09:17:30;3.10;;;2.43;;
14235;SDS011;7202;50.718;7.072;2023-02-28T09:19:59;3.33;;;2.50;;
14235;SDS011;7202;50.718;7.072;2023-02-28T09:22:28;5.07;;;2.55;;
14235;SDS011;7202;50.718;7.072;2023-02-28T09:24:57;3.85;;;2.80;;
14235;SDS011;7202;50.718;7.072;2023-02-28T09:27:26;4.15;;;2.67;;
14235;SDS011;7202;50.718;7.072;2023-02-28T09:29:54;3.22;;;2.28;;
14235;SDS011;7202;50.718;7.072;2023-02-28T09:32:23;3.78;;;2.65;;
14235;SDS011;7202;50.718;7.072;2023-02-28T09:34:52;3.40;;;2.30;;
14235;SDS011;7202;50.718;7.072;2023-02-28T09:37:20;4.25;;;2.60;;
14235;SDS011;7202;50.718;7.072;2023-02-28T09:39:51;4.20;;;2.60;;
14235;SDS011;7202;50.718;7.072;2023-02-28T09:42:21;3.40;;;2.33;;
14235;SDS011;7202;50.718;7.072;2023-02-28T09:44:53;3.47;;;2.53;;
14235;SDS011;7202;50.718;7.072;2023-02-28T09:47:25;3.08;;;2.30;;
14235;SDS011;7202;50.718;7.072;2023-02-28T09:49:58;4.63;;;2.55;;
14235;SDS011;7202;50.718;7.072;2023-02-28T09:52:45;4.82;;;2.65;;
14235;SDS011;7202;50.718;7.072;2023-02-28T09:55:20;3.28;;;2.20;;
14235;SDS011;7202;50.718;7.072;2023-02-28T09:58:01;3.10;;;2.40;;
14235;SDS011;7202;50.718;7.072;2023-02-28T10:00:30;3.70;;;2.22;;
14235;SDS011;7202;50.718;7.072;2023-02-28T10:03:09;4.45;;;2.80;;
14235;SDS011;7202;50.718;7.072;2023-02-28T10:05:51;4.75;;;2.38;;
14235;SDS011;7202;50.718;7.072;2023-02-28T10:08:25;4.70;;;2.13;;
14235;SDS011;7202;50.718;7.072;2023-02-28T10:11:00;4.80;;;2.55;;
14235;SDS011;7202;50.718;7.072;2023-02-28T10:13:32;4.75;;;2.15;;
14235;SDS011;7202;50.718;7.072;2023-02-28T10:16:04;3.83;;;2.10;;
14235;SDS011;7202;50.718;7.072;2023-02-28T10:18:40;5.07;;;2.25;;
14235;SDS011;7202;50.718;7.072;2023-02-28T10:21:15;2.47;;;2.03;;
14235;SDS011;7202;50.718;7.072;2023-02-28T10:23:48;2.72;;;2.10;;
14235;SDS011;7202;50.718;7.072;2023-02-28T10:26:22;2.83;;;2.15;;
14235;SDS011;7202;50.718;7.072;2023-02-28T10:28:54;5.88;;;2.25;;
14235;SDS011;7202;50.718;7.072;2023-02-28T10:31:23;4.35;;;2.40;;
14235;SDS011;7202;50.718;7.072;2023-02-28T10:33:52;5.18;;;2.40;;
14235;SDS011;7202;50.718;7.072;2023-02-28T10:36:21;3.55;;;2.28;;
14235;SDS011;7202;50.718;7.072;2023-02-28T10:38:50;3.17;;;2.22;;
14235;SDS011;7202;50.718;7.072;2023-02-28T10:41:28;3.50;;;2.20;;
14235;SDS011;7202;50.718;7.072;2023-02-28T10:44:12;2.67;;;2.25;;
14235;SDS011;7202;50.718;7.072;2023-02-28T10:46:42;2.80;;;2.28;;
14235;SDS011;7202;50.718;7.072;2023-02-28T10:49:17;3.22;;;2.30;;
14235;SDS011;7202;50.718;7.072;2023-02-28T10:51:49;3.63;;;2.20;;
14235;SDS011;7202;50.718;7.072;2023-02-28T10:54:22;3.55;;;2.10;;
14235;SDS011;7202;50.718;7.072;2023-02-28T10:57:06;6.32;;;2.20;;
14235;SDS011;7202;50.718;7.072;2023-02-28T10:59:44;3.08;;;2.30;;
14235;SDS011;7202;50.718;7.072;2023-02-28T11:02:31;2.35;;;1.92;;
14235;SDS011;7202;50.718;7.072;2023-02-28T11:05:10;5.13;;;2.50;;
14235;SDS011;7202;50.718;7.072;2023-02-28T11:07:51;4.68;;;2.25;;
14235;SDS011;7202;50.718;7.072;2023-02-28T11:10:23;3.75;;;2.33;;
14235;SDS011;7202;50.718;7.072;2023-02-28T11:12:55;3.70;;;2.17;;
14235;SDS011;7202;50.718;7.072;2023-02-28T11:15:27;2.85;;;2.28;;
14235;SDS011;7202;50.718;7.072;2023-02-28T11:17:58;4.53;;;2.22;;
14235;SDS011;7202;50.718;7.072;2023-02-28T11:20:29;4.72;;;2.60;;
14235;SDS011;7202;50.718;7.072;2023-02-28T11:23:00;3.63;;;2.50;;
14235;SDS011;7202;50.718;7.072;2023-02-28T11:25:31;3.45;;;2.50;;
14235;SDS011;7202;50.718;7.072;2023-02-28T11:28:03;4.55;;;2.20;;
14235;SDS011;7202;50.718;7.072;2023-02-28T11:30:34;5.03;;;2.67;;
14235;SDS011;7202;50.718;7.072;2023-02-28T11:33:18;3.47;;;2.63;;
14235;SDS011;7202;50.718;7.072;2023-02-28T11:35:51;4.88;;;2.33;;
14235;SDS011;7202;50.718;7.072;2023-02-28T11:38:21;3.47;;;2.75;;
14235;SDS011;7202;50.718;7.072;2023-02-28T11:40:52;2.90;;;2.35;;
14235;SDS011;7202;50.718;7.072;2023-02-28T11:43:38;3.35;;;2.50;;
14235;SDS011;7202;50.718;7.072;2023-02-28T11:46:20;3.42;;;2.22;;
14235;SDS011;7202;50.718;7.072;2023-02-28T11:48:59;3.53;;;2.33;;
14235;SDS011;7202;50.718;7.072;2023-02-28T11:51:34;7.18;;;2.70;;
14235;SDS011;7202;50.718;7.072;2023-02-28T11:54:23;3.67;;;2.45;;
14235;SDS011;7202;50.718;7.072;2023-02-28T11:57:00;3.20;;;2.40;;
14235;SDS011;7202;50.718;7.072;2023-02-28T11:59:43;4.38;;;2.45;;
14235;SDS011;7202;50.718;7.072;2023-02-28T12:02:25;5.68;;;2.47;;
14235;SDS011;7202;50.718;7.072;2023-02-28T12:05:01;3.30;;;2.42;;
14235;SDS011;7202;50.718;7.072;2023-02-28T12:07:42;4.78;;;2.60;;
14235;SDS011;7202;50.718;7.072;2023-02-28T12:10:20;3.92;;;2.70;;
14235;SDS011;7202;50.718;7.072;2023-02-28T12:13:01;3.15;;;2.35;;
14235;SDS011;7202;50.718;7.072;2023-02-28T12:16:04;3.13;;;2.40;;
14235;SDS011;7202;50.718;7.072;2023-02-28T12:18:50;6.22;;;2.33;;
14235;SDS011;7202;50.718;7.072;2023-02-28T12:21:31;5.10;;;2.40;;
14235;SDS011;7202;50.718;7.072;2023-02-28T12:24:12;3.42;;;2.67;;
14235;SDS011;7202;50.718;7.072;2023-02-28T12:27:03;4.90;;;2.40;;
14235;SDS011;7202;50.718;7.072;2023-02-28T12:29:38;3.53;;;2.42;;
14235;SDS011;7202;50.718;7.072;2023-02-28T12:32:14;3.90;;;2.63;;
14235;SDS011;7202;50.718;7.072;2023-02-28T12:34:47;4.13;;;2.50;;
14235;SDS011;7202;50.718;7.072;2023-02-28T12:37:20;3.13;;;2.40;;
14235;SDS011;7202;50.718;7.072;2023-02-28T12:39:54;4.05;;;2.80;;
14235;SDS011;7202;50.718;7.072;2023-02-28T12:42:32;3.05;;;2.30;;
14235;SDS011;7202;50.718;7.072;2023-02-28T12:45:09;4.78;;;2.63;;
14235;SDS011;7202;50.718;7.072;2023-02-28T12:47:42;3.15;;;2.60;;
14235;SDS011;7202;50.718;7.072;2023-02-28T12:50:14;3.47;;;2.40;;
14235;SDS011;7202;50.718;7.072;2023-02-28T12:52:47;3.30;;;2.50;;
14235;SDS011;7202;50.718;7.072;2023-02-28T12:55:27;3.63;;;2.90;;
14235;SDS011;7202;50.718;7.072;2023-02-28T12:58:07;3.83;;;2.28;;
14235;SDS011;7202;50.718;7.072;2023-02-28T13:00:45;4.10;;;2.72;;
14235;SDS011;7202;50.718;7.072;2023-02-28T13:03:35;11.07;;;2.63;;
14235;SDS011;7202;50.718;7.072;2023-02-28T13:06:23;6.80;;;2.75;;
14235;SDS011;7202;50.718;7.072;2023-02-28T13:09:09;4.00;;;2.42;;
14235;SDS011;7202;50.718;7.072;2023-02-28T13:11:42;4.40;;;2.72;;
14235;SDS011;7202;50.718;7.072;2023-02-28T13:14:20;2.88;;;2.08;;
14235;SDS011;7202;50.718;7.072;2023-02-28T13:16:55;3.63;;;2.55;;
14235;SDS011;7202;50.718;7.072;2023-02-28T13:19:28;3.95;;;2.53;;
14235;SDS011;7202;50.718;7.072;2023-02-28T13:21:58;3.97;;;2.63;;
14235;SDS011;7202;50.718;7.072;2023-02-28T13:33:21;4.47;;;2.50;;
14235;SDS011;7202;50.718;7.072;2023-02-28T13:38:51;3.17;;;2.38;;
14235;SDS011;7202;50.718;7.072;2023-02-28T13:44:13;3.83;;;2.95;;
14235;SDS011;7202;50.718;7.072;2023-02-28T13:49:51;3.55;;;2.72;;
14235;SDS011;7202;50.718;7.072;2023-02-28T13:52:23;3.42;;;2.45;;
14235;SDS011;7202;50.718;7.072;2023-02-28T13:54:55;3.92;;;2.67;;
14235;SDS011;7202;50.718;7.072;2023-02-28T13:57:45;3.75;;;2.75;;
14235;SDS011;7202;50.718;7.072;2023-02-28T14:00:25;2.95;;;2.42;;
14235;SDS011;7202;50.718;7.072;2023-02-28T14:03:10;3.30;;;2.53;;
14235;SDS011;7202;50.718;7.072;2023-02-28T14:08:55;3.80;;;2.70;;
14235;SDS011;7202;50.718;7.072;2023-02-28T14:11:30;4.43;;;2.83;;
14235;SDS011;7202;50.718;7.072;2023-02-28T14:14:01;3.95;;;2.83;;
14235;SDS011;7202;50.718;7.072;2023-02-28T14:16:38;4.47;;;3.25;;
14235;SDS011;7202;50.718;7.072;2023-02-28T14:19:10;4.50;;;2.92;;
14235;SDS011;7202;50.718;7.072;2023-02-28T14:21:48;4.68;;;3.15;;
14235;SDS011;7202;50.718;7.072;2023-02-28T14:24:33;4.93;;;2.83;;
14235;SDS011;7202;50.718;7.072;2023-02-28T14:27:22;4.30;;;3.05;;
14235;SDS011;7202;50.718;7.072;2023-02-28T14:30:11;4.53;;;3.40;;
14235;SDS011;7202;50.718;7.072;2023-02-28T14:33:10;3.78;;;2.90;;
14235;SDS011;7202;50.718;7.072;2023-02-28T14:35:52;4.10;;;2.90;;
14235;SDS011;7202;50.718;7.072;2023-02-28T14:38:36;8.15;;;3.33;;
14235;SDS011;7202;50.718;7.072;2023-02-28T14:41:16;5.00;;;3.40;;
14235;SDS011;7202;50.718;7.072;2023-02-28T14:43:50;5.25;;;3.38;;
14235;SDS011;7202;50.718;7.072;2023-02-28T14:46:20;4.25;;;3.47;;
14235;SDS011;7202;50.718;7.072;2023-02-28T14:48:51;4.85;;;3.08;;
14235;SDS011;7202;50.718;7.072;2023-02-28T14:51:21;5.18;;;3.60;;
14235;SDS011;7202;50.718;7.072;2023-02-28T14:53:51;5.60;;;3.40;;
14235;SDS011;7202;50.718;7.072;2023-02-28T14:56:28;5.00;;;3.20;;
14235;SDS011;7202;50.718;7.072;2023-02-28T14:59:01;4.80;;;3.60;;
14235;SDS011;7202;50.718;7.072;2023-02-28T15:01:29;5.45;;;3.58;;
14235;SDS011;7202;50.718;7.072;2023-02-28T15:04:01;6.38;;;3.83;;
14235;SDS011;7202;50.718;7.072;2023-02-28T15:06:32;6.22;;;3.33;;
14235;SDS011;7202;50.718;7.072;2023-02-28T15:09:08;4.13;;;3.40;;
14235;SDS011;7202;50.718;7.072;2023-02-28T15:11:39;4.45;;;3.00;;
14235;SDS011;7202;50.718;7.072;2023-02-28T15:14:12;4.82;;;3.42;;
14235;SDS011;7202;50.718;7.072;2023-02-28T15:16:44;3.45;;;3.15;;
14235;SDS011;7202;50.718;7.072;2023-02-28T15:19:18;3.72;;;3.33;;
14235;SDS011;7202;50.718;7.072;2023-02-28T15:21:51;4.20;;;3.17;;
14235;SDS011;7202;50.718;7.072;2023-02-28T15:24:28;4.45;;;3.42;;
14235;SDS011;7202;50.718;7.072;2023-02-28T15:27:04;4.65;;;3.20;;
14235;SDS011;7202;50.718;7.072;2023-02-28T15:29:42;5.28;;;3.78;;
14235;SDS011;7202;50.718;7.072;2023-02-28T15:32:24;4.10;;;3.47;;
14235;SDS011;7202;50.718;7.072;2023-02-28T15:34:56;5.75;;;3.67;;
14235;SDS011;7202;50.718;7.072;2023-02-28T15:37:27;5.15;;;3.60;;
14235;SDS011;7202;50.718;7.072;2023-02-28T15:39:58;5.03;;;3.80;;
14235;SDS011;7202;50.718;7.072;2023-02-28T15:42:37;5.18;;;3.45;;
14235;SDS011;7202;50.718;7.072;2023-02-28T15:45:25;4.60;;;3.70;;
14235;SDS011;7202;50.718;7.072;2023-02-28T15:47:55;4.95;;;4.00;;
14235;SDS011;7202;50.718;7.072;2023-02-28T15:50:34;5.60;;;3.95;;
14235;SDS011;7202;50.718;7.072;2023-02-28T15:53:03;4.15;;;3.67;;
14235;SDS011;7202;50.718;7.072;2023-02-28T15:55:31;5.47;;;4.13;;
14235;SDS011;7202;50.718;7.072;2023-02-28T15:58:02;6.38;;;3.90;;
14235;SDS011;7202;50.718;7.072;2023-02-28T16:00:32;6.78;;;3.95;;
14235;SDS011;7202;50.718;7.072;2023-02-28T16:03:00;7.68;;;3.75;;
14235;SDS011;7202;50.718;7.072;2023-02-28T16:05:29;4.43;;;3.65;;
14235;SDS011;7202;50.718;7.072;2023-02-28T16:08:00;5.78;;;4.00;;